createdAt,value
2022-11-11T00:00:58.645Z,3.3
2022-11-11T00:02:04.828Z,3.3
2022-11-11T00:03:10.003Z,3.3
2022-11-11T00:04:16.255Z,3.3
2022-11-11T00:05:22.327Z,3.3
2022-11-11T00:07:34.734Z,3.3
2022-11-11T00:08:40.842Z,3.3
2022-11-11T00:09:47.034Z,3.3
2022-11-11T00:10:53.248Z,3.3
2022-11-11T00:11:59.360Z,3.3
2022-11-11T00:13:05.527Z,3.4
2022-11-11T00:14:11.730Z,3.4
2022-11-11T00:15:17.862Z,3.4
2022-11-11T00:16:24.073Z,3.4
2022-11-11T00:17:29.214Z,3.4
2022-11-11T00:18:35.386Z,3.4
2022-11-11T00:19:41.564Z,3.4
2022-11-11T00:20:47.746Z,3.4
2022-11-11T00:21:53.901Z,3.4
2022-11-11T00:23:00.083Z,3.4
2022-11-11T00:24:06.285Z,3.4
2022-11-11T00:25:12.568Z,3.4
2022-11-11T00:26:18.592Z,3.4
2022-11-11T00:27:24.754Z,3.4
2022-11-11T00:28:30.929Z,3.4
2022-11-11T00:29:37.083Z,3.4
2022-11-11T00:30:43.329Z,3.4
2022-11-11T00:31:48.454Z,3.4
2022-11-11T00:32:54.653Z,3.3
2022-11-11T00:34:00.774Z,3.3
2022-11-11T00:35:06.959Z,3.3
2022-11-11T00:36:13.199Z,3.3
2022-11-11T00:37:19.287Z,3.4
2022-11-11T00:38:25.476Z,3.4
2022-11-11T00:39:31.644Z,3.4
2022-11-11T00:40:37.810Z,3.4
2022-11-11T00:41:44.007Z,3.4
2022-11-11T00:42:50.164Z,3.5
2022-11-11T00:43:56.317Z,3.4
2022-11-11T00:45:02.518Z,3.4
2022-11-11T00:46:07.683Z,3.4
2022-11-11T00:47:13.843Z,3.4
2022-11-11T00:48:20.007Z,3.4
2022-11-11T00:49:26.179Z,3.4
2022-11-11T00:50:32.362Z,3.3
2022-11-11T00:51:38.520Z,3.3
2022-11-11T00:52:44.699Z,3.3
2022-11-11T00:53:50.872Z,3.3
2022-11-11T00:54:57.051Z,3.3
2022-11-11T00:56:03.258Z,3.3
2022-11-11T00:57:09.363Z,3.3
2022-11-11T00:58:15.575Z,3.3
2022-11-11T00:59:21.714Z,3.3
2022-11-11T01:00:26.897Z,3.2
2022-11-11T01:01:33.078Z,3.2
2022-11-11T01:02:39.278Z,3.2
2022-11-11T01:03:45.411Z,3.2
2022-11-11T01:04:51.600Z,3.3
2022-11-11T01:05:57.842Z,3.3
2022-11-11T01:07:03.923Z,3.3
2022-11-11T01:08:10.105Z,3.3
2022-11-11T01:09:16.248Z,3.3
2022-11-11T01:10:22.438Z,3.3
2022-11-11T01:11:28.604Z,3.4
2022-11-11T01:12:34.768Z,3.4
2022-11-11T01:13:40.946Z,3.4
2022-11-11T01:14:46.129Z,3.4
2022-11-11T01:15:52.349Z,3.4
2022-11-11T01:16:58.523Z,3.4
2022-11-11T01:18:04.634Z,3.4
2022-11-11T01:19:10.872Z,3.4
2022-11-11T01:20:16.966Z,3.3
2022-11-11T01:21:23.149Z,3.3
2022-11-11T01:22:29.313Z,3.3
2022-11-11T01:23:35.557Z,3.4
2022-11-11T01:24:41.663Z,3.4
2022-11-11T01:25:47.830Z,3.4
2022-11-11T01:26:54.109Z,3.4
2022-11-11T01:28:00.164Z,3.4
2022-11-11T01:29:05.384Z,3.4
2022-11-11T01:30:11.523Z,3.4
2022-11-11T01:31:17.686Z,3.4
2022-11-11T01:32:23.864Z,3.4
2022-11-11T01:33:30.031Z,3.4
2022-11-11T01:34:36.204Z,3.4
2022-11-11T01:35:42.381Z,3.4
2022-11-11T01:36:48.537Z,3.3
2022-11-11T01:37:54.701Z,3.3
2022-11-11T01:39:00.891Z,3.3
2022-11-11T01:40:07.046Z,3.3
2022-11-11T01:41:13.224Z,3.3
2022-11-11T01:42:19.399Z,3.3
2022-11-11T01:43:24.580Z,3.3
2022-11-11T01:44:30.741Z,3.3
2022-11-11T01:45:36.915Z,3.3
2022-11-11T01:46:43.179Z,3.3
2022-11-11T01:47:49.255Z,3.3
2022-11-11T01:48:55.442Z,3.3
2022-11-11T01:50:01.617Z,3.3
2022-11-11T01:51:07.757Z,3.2
2022-11-11T01:52:13.936Z,3.2
2022-11-11T01:53:20.098Z,3.2
2022-11-11T01:54:26.278Z,3.2
2022-11-11T01:55:32.499Z,3.2
2022-11-11T01:56:38.606Z,3.2
2022-11-11T01:57:43.797Z,3.2
2022-11-11T01:58:49.957Z,3.2
2022-11-11T01:59:56.144Z,3.2
2022-11-11T02:01:02.311Z,3.1
2022-11-11T02:02:08.492Z,3.1
2022-11-11T02:03:14.671Z,3.2
2022-11-11T02:04:20.828Z,3.2
2022-11-11T02:05:27.134Z,3.2
2022-11-11T02:06:33.168Z,3.2
2022-11-11T02:07:39.379Z,3.2
2022-11-11T02:08:45.608Z,3.2
2022-11-11T02:09:51.671Z,3.2
2022-11-11T02:10:57.846Z,3.1
2022-11-11T02:12:03.063Z,3.1
2022-11-11T02:13:09.196Z,3.1
2022-11-11T02:14:15.369Z,3.1
2022-11-11T02:15:21.550Z,3.1
2022-11-11T02:16:27.710Z,3.1
2022-11-11T02:17:33.874Z,3.1
2022-11-11T02:18:40.057Z,3.1
2022-11-11T02:19:46.218Z,3.1
2022-11-11T02:20:52.391Z,3
2022-11-11T02:21:58.567Z,3
2022-11-11T02:23:04.714Z,3
2022-11-11T02:24:10.891Z,3
2022-11-11T02:25:17.070Z,3
2022-11-11T02:26:22.258Z,3
2022-11-11T02:27:28.430Z,3
2022-11-11T02:28:34.585Z,3
2022-11-11T02:29:40.764Z,3
2022-11-11T02:30:46.925Z,3
2022-11-11T02:31:53.109Z,3
2022-11-11T02:32:58.318Z,3
2022-11-11T02:34:04.467Z,3
2022-11-11T02:35:10.744Z,2.9
2022-11-11T02:36:16.815Z,2.9
2022-11-11T02:37:22.983Z,2.9
2022-11-11T02:38:29.202Z,2.8
2022-11-11T02:39:35.312Z,2.8
2022-11-11T02:40:41.482Z,2.8
2022-11-11T02:41:47.643Z,2.8
2022-11-11T02:42:53.811Z,2.8
2022-11-11T02:43:59.991Z,2.7
2022-11-11T02:45:06.152Z,2.7
2022-11-11T02:46:12.336Z,2.7
2022-11-11T02:47:17.572Z,2.7
2022-11-11T02:48:23.685Z,2.7
2022-11-11T02:49:29.848Z,2.7
2022-11-11T02:50:36.034Z,2.7
2022-11-11T02:51:42.206Z,2.7
2022-11-11T02:52:48.426Z,2.6
2022-11-11T02:53:54.524Z,2.6
2022-11-11T02:55:00.710Z,2.6
2022-11-11T02:56:06.876Z,2.6
2022-11-11T02:57:13.048Z,2.6
2022-11-11T02:58:19.217Z,2.6
2022-11-11T02:59:25.373Z,2.6
2022-11-11T03:00:31.540Z,2.6
2022-11-11T03:01:36.739Z,2.6
2022-11-11T03:02:42.911Z,2.6
2022-11-11T03:03:49.076Z,2.5
2022-11-11T03:04:55.255Z,2.5
2022-11-11T03:06:01.412Z,2.5
2022-11-11T03:07:07.592Z,2.5
2022-11-11T03:08:13.765Z,2.5
2022-11-11T03:09:19.919Z,2.5
2022-11-11T03:10:26.088Z,2.5
2022-11-11T03:11:32.284Z,2.5
2022-11-11T03:12:38.436Z,2.5
2022-11-11T03:14:50.783Z,2.5
2022-11-11T03:15:55.968Z,2.5
2022-11-11T03:17:02.133Z,2.5
2022-11-11T03:18:08.301Z,2.4
2022-11-11T03:19:14.469Z,2.4
2022-11-11T03:20:20.658Z,2.4
2022-11-11T03:21:26.809Z,2.4
2022-11-11T03:22:32.979Z,2.4
2022-11-11T03:23:39.148Z,2.4
2022-11-11T03:24:45.327Z,2.4
2022-11-11T03:25:51.499Z,2.4
2022-11-11T03:26:57.759Z,2.4
2022-11-11T03:28:03.826Z,2.4
2022-11-11T03:29:10.035Z,2.3
2022-11-11T03:30:15.186Z,2.3
2022-11-11T03:31:21.355Z,2.3
2022-11-11T03:32:27.529Z,2.3
2022-11-11T03:33:33.694Z,2.3
2022-11-11T03:34:39.874Z,2.3
2022-11-11T03:35:46.056Z,2.3
2022-11-11T03:36:52.206Z,2.3
2022-11-11T03:37:58.369Z,2.3
2022-11-11T03:39:04.530Z,2.3
2022-11-11T03:40:10.707Z,2.3
2022-11-11T03:41:16.876Z,2.3
2022-11-11T03:42:23.055Z,2.3
2022-11-11T03:43:29.226Z,2.3
2022-11-11T03:44:34.404Z,2.3
2022-11-11T03:45:40.586Z,2.3
2022-11-11T03:46:46.744Z,2.3
2022-11-11T03:47:52.932Z,2.3
2022-11-11T03:48:59.094Z,2.3
2022-11-11T03:50:05.268Z,2.3
2022-11-11T03:51:11.425Z,2.3
2022-11-11T03:52:17.605Z,2.3
2022-11-11T03:53:23.811Z,2.3
2022-11-11T03:54:30.007Z,2.3
2022-11-11T03:55:36.111Z,2.3
2022-11-11T03:56:42.284Z,2.4
2022-11-11T03:57:48.459Z,2.4
2022-11-11T03:58:53.633Z,2.4
2022-11-11T03:59:59.816Z,2.4
2022-11-11T04:01:05.958Z,2.4
2022-11-11T04:02:12.139Z,2.4
2022-11-11T04:03:18.295Z,2.4
2022-11-11T04:04:24.486Z,2.4
2022-11-11T04:05:30.646Z,2.4
2022-11-11T04:06:36.812Z,2.3
2022-11-11T04:07:42.987Z,2.4
2022-11-11T04:08:49.154Z,2.4
2022-11-11T04:09:55.367Z,2.4
2022-11-11T04:11:01.498Z,2.4
2022-11-11T04:12:07.694Z,2.3
2022-11-11T04:13:12.853Z,2.4
2022-11-11T04:14:19.015Z,2.4
2022-11-11T04:15:25.189Z,2.4
2022-11-11T04:16:31.356Z,2.4
2022-11-11T04:17:37.529Z,2.4
2022-11-11T04:18:43.704Z,2.4
2022-11-11T04:19:49.867Z,2.4
2022-11-11T04:20:56.056Z,2.4
2022-11-11T04:22:02.209Z,2.5
2022-11-11T04:23:08.384Z,2.5
2022-11-11T04:24:14.551Z,2.5
2022-11-11T04:25:20.717Z,2.5
2022-11-11T04:26:26.885Z,2.5
2022-11-11T04:27:32.087Z,2.5
2022-11-11T04:28:38.248Z,2.5
2022-11-11T04:29:44.421Z,2.5
2022-11-11T04:30:50.582Z,2.6
2022-11-11T04:31:56.765Z,2.6
2022-11-11T04:33:02.930Z,2.6
2022-11-11T04:34:09.124Z,2.6
2022-11-11T04:35:15.266Z,2.6
2022-11-11T04:36:21.432Z,2.6
2022-11-11T04:37:27.610Z,2.6
2022-11-11T04:38:33.774Z,2.7
2022-11-11T04:39:39.946Z,2.7
2022-11-11T04:40:46.120Z,2.7
2022-11-11T04:41:51.313Z,2.7
2022-11-11T04:42:57.463Z,2.8
2022-11-11T04:44:03.648Z,2.8
2022-11-11T04:45:09.809Z,2.8
2022-11-11T04:46:15.989Z,2.8
2022-11-11T04:47:22.151Z,2.8
2022-11-11T04:48:28.322Z,2.8
2022-11-11T04:49:34.525Z,2.9
2022-11-11T04:50:40.666Z,2.9
2022-11-11T04:51:46.856Z,2.9
2022-11-11T04:52:52.998Z,2.9
2022-11-11T04:53:59.173Z,2.9
2022-11-11T04:55:05.344Z,3
2022-11-11T04:56:10.539Z,3
2022-11-11T04:57:16.709Z,3
2022-11-11T04:58:22.864Z,3.1
2022-11-11T04:59:29.024Z,3.1
2022-11-11T05:00:35.200Z,3.1
2022-11-11T05:01:41.453Z,3.1
2022-11-11T05:02:47.553Z,3.1
2022-11-11T05:03:53.731Z,3.1
2022-11-11T05:04:59.884Z,3.1
2022-11-11T05:06:06.055Z,3.1
2022-11-11T05:07:12.221Z,3.1
2022-11-11T05:08:18.389Z,3
2022-11-11T05:09:24.567Z,3
2022-11-11T05:10:29.762Z,3
2022-11-11T05:11:35.908Z,3.1
2022-11-11T05:12:42.144Z,3.1
2022-11-11T05:13:48.254Z,3.1
2022-11-11T05:14:54.543Z,3.2
2022-11-11T05:16:00.613Z,3.2
2022-11-11T05:17:06.912Z,3.3
2022-11-11T05:18:12.945Z,3.4
2022-11-11T05:19:19.182Z,3.4
2022-11-11T05:20:25.290Z,3.4
2022-11-11T05:21:31.518Z,3.4
2022-11-11T05:22:37.683Z,3.4
2022-11-11T05:23:43.787Z,3.4
2022-11-11T05:24:48.981Z,3.4
2022-11-11T05:25:55.134Z,3.4
2022-11-11T05:27:01.307Z,3.5
2022-11-11T05:28:07.482Z,3.5
2022-11-11T05:29:13.654Z,3.5
2022-11-11T05:30:19.828Z,3.5
2022-11-11T05:31:25.986Z,3.6
2022-11-11T05:32:32.155Z,3.6
2022-11-11T05:33:38.325Z,3.6
2022-11-11T05:34:44.572Z,3.6
2022-11-11T05:35:50.724Z,3.6
2022-11-11T05:36:56.927Z,3.6
2022-11-11T05:38:03.017Z,3.6
2022-11-11T05:39:08.205Z,3.6
2022-11-11T05:40:14.363Z,3.6
2022-11-11T05:41:20.563Z,3.7
2022-11-11T05:42:26.708Z,3.7
2022-11-11T05:43:32.883Z,3.7
2022-11-11T05:44:39.062Z,3.7
2022-11-11T05:45:45.216Z,3.6
2022-11-11T05:46:51.389Z,3.6
2022-11-11T05:47:57.577Z,3.6
2022-11-11T05:49:03.718Z,3.6
2022-11-11T05:50:09.915Z,3.5
2022-11-11T05:51:16.063Z,3.5
2022-11-11T05:52:22.252Z,3.5
2022-11-11T05:53:27.410Z,3.5
2022-11-11T05:54:33.637Z,3.5
2022-11-11T05:55:39.776Z,3.5
2022-11-11T05:57:52.101Z,3.4
2022-11-11T05:58:58.328Z,3.4
2022-11-11T06:00:04.447Z,3.4
2022-11-11T06:01:10.629Z,3.4
2022-11-11T06:02:16.873Z,3.4
2022-11-11T06:03:22.956Z,3.4
2022-11-11T06:04:29.135Z,3.4
2022-11-11T06:05:35.279Z,3.4
2022-11-11T06:06:41.464Z,3.3
2022-11-11T06:07:46.647Z,3.3
2022-11-11T06:08:52.810Z,3.3
2022-11-11T06:09:59.026Z,3.3
2022-11-11T06:11:05.148Z,3.3
2022-11-11T06:12:11.427Z,3.3
2022-11-11T06:13:17.496Z,3.3
2022-11-11T06:14:22.711Z,3.3
2022-11-11T06:15:28.865Z,3.3
2022-11-11T06:16:35.034Z,3.3
2022-11-11T06:17:41.310Z,3.3
2022-11-11T06:18:47.366Z,3.3
2022-11-11T06:19:53.591Z,3.3
2022-11-11T06:20:59.705Z,3.3
2022-11-11T06:22:05.877Z,3.3
2022-11-11T06:23:12.057Z,3.3
2022-11-11T06:24:18.234Z,3.3
2022-11-11T06:25:24.444Z,3.3
2022-11-11T06:26:30.566Z,3.3
2022-11-11T06:27:36.732Z,3.3
2022-11-11T06:28:41.921Z,3.3
2022-11-11T06:29:48.093Z,3.3
2022-11-11T06:30:54.268Z,3.2
2022-11-11T06:32:00.413Z,3.2
2022-11-11T06:33:06.592Z,3.2
2022-11-11T06:34:12.755Z,3.2
2022-11-11T06:35:18.943Z,3.2
2022-11-11T06:36:25.099Z,3.2
2022-11-11T06:37:31.276Z,3.2
2022-11-11T06:38:37.440Z,3.2
2022-11-11T06:39:43.607Z,3.2
2022-11-11T06:40:49.784Z,3.2
2022-11-11T06:41:55.954Z,3.2
2022-11-11T06:43:01.131Z,3.2
2022-11-11T06:44:07.302Z,3.2
2022-11-11T06:45:13.489Z,3.2
2022-11-11T06:46:19.653Z,3.2
2022-11-11T06:47:25.827Z,3.2
2022-11-11T06:48:32.041Z,3.2
2022-11-11T06:49:38.158Z,3.2
2022-11-11T06:50:44.317Z,3.2
2022-11-11T06:51:50.517Z,3.2
2022-11-11T06:52:56.664Z,3.3
2022-11-11T06:54:02.838Z,3.3
2022-11-11T06:55:08.999Z,3.3
2022-11-11T06:56:15.248Z,3.3
2022-11-11T06:57:20.368Z,3.3
2022-11-11T06:58:26.524Z,3.3
2022-11-11T06:59:32.697Z,3.4
2022-11-11T07:00:38.874Z,3.4
2022-11-11T07:01:45.046Z,3.4
2022-11-11T07:02:51.207Z,3.4
2022-11-11T07:03:57.476Z,3.4
2022-11-11T07:05:03.569Z,3.4
2022-11-11T07:06:09.731Z,3.5
2022-11-11T07:07:15.883Z,3.5
2022-11-11T07:08:22.052Z,3.5
2022-11-11T07:09:28.218Z,3.5
2022-11-11T07:10:34.404Z,3.6
2022-11-11T07:11:39.587Z,3.6
2022-11-11T07:12:45.744Z,3.6
2022-11-11T07:13:51.999Z,3.7
2022-11-11T07:14:58.103Z,3.7
2022-11-11T07:16:04.334Z,3.7
2022-11-11T07:17:10.514Z,3.7
2022-11-11T07:18:16.645Z,3.8
2022-11-11T07:19:22.761Z,3.8
2022-11-11T07:20:28.948Z,3.8
2022-11-11T07:21:35.113Z,3.9
2022-11-11T07:22:41.292Z,3.9
2022-11-11T07:23:47.456Z,3.9
2022-11-11T07:24:53.719Z,4
2022-11-11T07:25:58.832Z,4
2022-11-11T07:27:04.976Z,4.1
2022-11-11T07:28:11.145Z,4.1
2022-11-11T07:29:17.479Z,4.1
2022-11-11T07:30:23.622Z,4.2
2022-11-11T07:31:29.659Z,4.2
2022-11-11T07:32:35.822Z,4.2
2022-11-11T07:33:42.030Z,4.3
2022-11-11T07:34:48.180Z,4.4
2022-11-11T07:35:54.332Z,4.4
2022-11-11T07:37:00.595Z,4.5
2022-11-11T07:38:06.705Z,4.5
2022-11-11T07:39:12.861Z,4.6
2022-11-11T07:40:18.043Z,4.6
2022-11-11T07:41:24.203Z,4.6
2022-11-11T07:42:30.380Z,4.7
2022-11-11T07:43:36.599Z,4.8
2022-11-11T07:44:42.726Z,4.8
2022-11-11T07:45:48.882Z,4.9
2022-11-11T07:46:55.097Z,4.9
2022-11-11T07:48:01.223Z,4.9
2022-11-11T07:49:07.400Z,4.9
2022-11-11T07:50:13.670Z,5
2022-11-11T07:51:19.744Z,5
2022-11-11T07:52:25.918Z,5
2022-11-11T07:53:32.078Z,5
2022-11-11T07:54:37.266Z,5.1
2022-11-11T07:55:43.462Z,5.1
2022-11-11T07:56:49.615Z,5.1
2022-11-11T07:57:55.835Z,5.1
2022-11-11T07:59:01.942Z,5.2
2022-11-11T08:00:08.205Z,5.2
2022-11-11T08:01:14.302Z,5.2
2022-11-11T08:02:20.464Z,5.3
2022-11-11T08:03:26.745Z,5.3
2022-11-11T08:04:32.815Z,5.4
2022-11-11T08:05:39.029Z,5.5
2022-11-11T08:06:45.148Z,5.5
2022-11-11T08:07:51.327Z,5.6
2022-11-11T08:08:56.514Z,5.7
2022-11-11T08:10:02.678Z,5.7
2022-11-11T08:11:08.848Z,5.7
2022-11-11T08:12:15.031Z,5.8
2022-11-11T08:13:21.191Z,5.8
2022-11-11T08:14:27.448Z,5.8
2022-11-11T08:15:33.532Z,5.8
2022-11-11T08:16:39.712Z,5.7
2022-11-11T08:17:45.874Z,5.7
2022-11-11T08:18:52.035Z,5.8
2022-11-11T08:19:58.217Z,5.9
2022-11-11T08:21:04.423Z,5.9
2022-11-11T08:22:10.545Z,5.9
2022-11-11T08:23:15.740Z,5.9
2022-11-11T08:24:21.906Z,5.9
2022-11-11T08:25:28.080Z,6.1
2022-11-11T08:26:34.258Z,6.2
2022-11-11T08:27:40.448Z,6.2
2022-11-11T08:28:46.589Z,6.3
2022-11-11T08:29:52.767Z,6.3
2022-11-11T08:30:58.956Z,6.3
2022-11-11T08:32:05.125Z,6.4
2022-11-11T08:33:11.274Z,6.4
2022-11-11T08:34:17.425Z,6.4
2022-11-11T08:35:23.597Z,6.5
2022-11-11T08:36:29.770Z,6.5
2022-11-11T08:37:34.988Z,6.6
2022-11-11T08:38:41.146Z,6.7
2022-11-11T08:39:47.328Z,6.7
2022-11-11T08:40:53.465Z,6.8
2022-11-11T08:41:59.667Z,6.9
2022-11-11T08:43:05.805Z,7
2022-11-11T08:44:11.954Z,7
2022-11-11T08:45:18.143Z,7.1
2022-11-11T08:46:24.308Z,7.2
2022-11-11T08:47:30.472Z,7.2
2022-11-11T08:48:36.648Z,7.3
2022-11-11T08:49:42.824Z,7.3
2022-11-11T08:50:48.983Z,7.4
2022-11-11T08:51:54.163Z,7.5
2022-11-11T08:53:00.350Z,7.6
2022-11-11T08:54:06.519Z,7.6
2022-11-11T08:55:12.672Z,7.7
2022-11-11T08:56:18.909Z,7.8
2022-11-11T08:57:25.053Z,7.8
2022-11-11T08:58:31.171Z,7.9
2022-11-11T08:59:37.359Z,8
2022-11-11T09:00:43.514Z,8.1
2022-11-11T09:01:49.713Z,8.1
2022-11-11T09:02:55.937Z,8.2
2022-11-11T09:04:02.031Z,8.3
2022-11-11T09:05:08.210Z,8.4
2022-11-11T09:06:13.386Z,8.5
2022-11-11T09:07:19.604Z,8.6
2022-11-11T09:08:25.724Z,8.6
2022-11-11T09:09:31.951Z,8.7
2022-11-11T09:10:38.060Z,8.7
2022-11-11T09:11:44.287Z,8.7
2022-11-11T09:12:50.411Z,8.8
2022-11-11T09:13:56.610Z,8.9
2022-11-11T09:15:02.746Z,8.9
2022-11-11T09:16:08.970Z,8.9
2022-11-11T09:17:15.089Z,9
2022-11-11T09:18:21.259Z,9
2022-11-11T09:19:27.478Z,9
2022-11-11T09:20:32.611Z,9.1
2022-11-11T09:21:38.877Z,9.1
2022-11-11T09:22:44.949Z,9.2
2022-11-11T09:23:51.226Z,9.2
2022-11-11T09:24:57.286Z,9.2
2022-11-11T09:26:03.453Z,9.3
2022-11-11T09:27:09.702Z,9.3
2022-11-11T09:28:15.831Z,9.3
2022-11-11T09:29:21.966Z,9.4
2022-11-11T09:30:28.144Z,9.4
2022-11-11T09:31:34.305Z,9.5
2022-11-11T09:32:40.574Z,9.5
2022-11-11T09:33:46.638Z,9.5
2022-11-11T09:34:51.827Z,9.6
2022-11-11T09:35:58.020Z,9.7
2022-11-11T09:37:04.171Z,9.7
2022-11-11T09:38:10.432Z,9.7
2022-11-11T09:39:16.508Z,9.8
2022-11-11T09:40:22.689Z,9.9
2022-11-11T09:41:28.917Z,10
2022-11-11T09:42:35.031Z,10.1
2022-11-11T09:43:41.202Z,10.2
2022-11-11T09:44:47.464Z,10.3
2022-11-11T09:45:53.588Z,10.6
2022-11-11T09:46:59.821Z,10.8
2022-11-11T09:48:05.851Z,11
2022-11-11T09:49:11.067Z,11.2
2022-11-11T09:50:17.228Z,11.3
2022-11-11T09:51:23.374Z,11.3
2022-11-11T09:52:29.668Z,11.5
2022-11-11T09:53:35.727Z,11.7
2022-11-11T09:54:41.898Z,11.7
2022-11-11T09:55:47.113Z,11.9
2022-11-11T09:56:53.353Z,11.9
2022-11-11T09:57:59.425Z,12
2022-11-11T09:59:05.591Z,12.2
2022-11-11T10:00:11.774Z,12.4
2022-11-11T10:01:17.935Z,12.4
2022-11-11T10:02:24.129Z,12.4
2022-11-11T10:03:30.328Z,12.6
2022-11-11T10:04:36.457Z,12.7
2022-11-11T10:05:42.621Z,12.8
2022-11-11T10:06:48.792Z,12.8
2022-11-11T10:07:54.970Z,12.8
2022-11-11T10:09:01.122Z,12.8
2022-11-11T10:10:06.293Z,12.8
2022-11-11T10:11:12.476Z,12.9
2022-11-11T10:12:18.660Z,13
2022-11-11T10:13:24.808Z,13
2022-11-11T10:14:30.983Z,13.1
2022-11-11T10:15:37.157Z,13.2
2022-11-11T10:16:43.329Z,13.4
2022-11-11T10:17:49.541Z,13.4
2022-11-11T10:18:55.676Z,13.5
2022-11-11T10:20:01.843Z,13.5
2022-11-11T10:21:07.997Z,13.5
2022-11-11T10:22:14.315Z,13.6
2022-11-11T10:23:20.444Z,13.6
2022-11-11T10:24:25.570Z,13.7
2022-11-11T10:25:31.687Z,13.6
2022-11-11T10:26:37.863Z,13.4
2022-11-11T10:27:44.048Z,13.6
2022-11-11T10:28:50.205Z,13.7
2022-11-11T10:29:56.380Z,13.8
2022-11-11T10:31:02.614Z,13.9
2022-11-11T10:32:08.732Z,13.9
2022-11-11T10:33:15.032Z,13.8
2022-11-11T10:34:21.073Z,13.8
2022-11-11T10:35:27.246Z,13.9
2022-11-11T10:36:33.408Z,14.1
2022-11-11T10:37:39.565Z,14.1
2022-11-11T10:38:44.756Z,14.2
2022-11-11T10:39:50.925Z,14.3
2022-11-11T10:40:57.086Z,14.4
2022-11-11T10:42:03.258Z,14.4
2022-11-11T10:43:09.431Z,14.4
2022-11-11T10:44:15.598Z,14.4
2022-11-11T10:45:21.777Z,14.4
2022-11-11T10:46:28.002Z,14.2
2022-11-11T10:47:34.101Z,14.2
2022-11-11T10:48:40.271Z,14.3
2022-11-11T10:49:46.450Z,14.4
2022-11-11T10:50:52.626Z,14.5
2022-11-11T10:51:58.775Z,14.5
2022-11-11T10:53:03.974Z,14.3
2022-11-11T10:54:10.147Z,14.2
2022-11-11T10:55:16.399Z,14.1
2022-11-11T10:56:22.471Z,14.1
2022-11-11T10:57:28.633Z,14.1
2022-11-11T10:58:34.826Z,14.1
2022-11-11T10:59:40.977Z,14.1
2022-11-11T11:00:47.158Z,14.1
2022-11-11T11:01:53.329Z,14.1
2022-11-11T11:02:59.481Z,14.1
2022-11-11T11:04:05.662Z,14
2022-11-11T11:05:11.878Z,13.9
2022-11-11T11:06:17.999Z,13.8
2022-11-11T11:07:23.181Z,13.8
2022-11-11T11:08:29.342Z,14
2022-11-11T11:09:35.525Z,14.1
2022-11-11T11:10:41.704Z,14.3
2022-11-11T11:11:47.858Z,14.4
2022-11-11T11:12:54.058Z,14.5
2022-11-11T11:14:00.201Z,14.5
2022-11-11T11:15:06.387Z,14.5
2022-11-11T11:16:12.529Z,14.5
2022-11-11T11:17:18.707Z,14.5
2022-11-11T11:18:24.934Z,14.5
2022-11-11T11:19:31.076Z,14.4
2022-11-11T11:20:37.224Z,14.2
2022-11-11T11:21:42.407Z,14
2022-11-11T11:22:48.572Z,13.8
2022-11-11T11:23:54.736Z,13.7
2022-11-11T11:25:00.914Z,13.6
2022-11-11T11:26:07.083Z,13.5
2022-11-11T11:27:13.289Z,13.4
2022-11-11T11:28:19.490Z,13.3
2022-11-11T11:29:25.588Z,13.2
2022-11-11T11:30:31.972Z,13.2
2022-11-11T11:31:37.922Z,13.2
2022-11-11T11:32:44.080Z,13.2
2022-11-11T11:33:50.261Z,13.1
2022-11-11T11:34:56.484Z,12.9
2022-11-11T11:36:01.746Z,12.8
2022-11-11T11:37:07.812Z,12.8
2022-11-11T11:38:13.958Z,12.7
2022-11-11T11:39:20.136Z,12.7
2022-11-11T11:40:26.306Z,12.7
2022-11-11T11:41:32.473Z,12.7
2022-11-11T11:42:38.665Z,12.7
2022-11-11T11:43:44.916Z,12.8
2022-11-11T11:44:51.022Z,12.8
2022-11-11T11:45:57.164Z,12.8
2022-11-11T11:47:03.355Z,12.8
2022-11-11T11:48:09.496Z,12.8
2022-11-11T11:49:15.655Z,12.9
2022-11-11T11:50:20.829Z,12.9
2022-11-11T11:51:27.016Z,12.9
2022-11-11T11:52:33.224Z,12.9
2022-11-11T11:53:39.342Z,12.8
2022-11-11T11:54:45.599Z,12.8
2022-11-11T11:55:51.686Z,12.8
2022-11-11T11:56:57.866Z,12.9
2022-11-11T11:58:04.154Z,12.9
2022-11-11T11:59:10.193Z,12.8
2022-11-11T12:00:16.365Z,12.5
2022-11-11T12:01:22.545Z,12.5
2022-11-11T12:02:28.699Z,12.5
2022-11-11T12:03:34.871Z,12.5
2022-11-11T12:04:40.070Z,12.5
2022-11-11T12:05:46.230Z,12.5
2022-11-11T12:06:52.396Z,12.5
2022-11-11T12:07:58.674Z,12.5
2022-11-11T12:09:04.811Z,12.6
2022-11-11T12:10:10.963Z,12.6
2022-11-11T12:11:17.140Z,12.6
2022-11-11T12:12:23.240Z,12.6
2022-11-11T12:13:29.442Z,12.5
2022-11-11T12:14:35.599Z,12.4
2022-11-11T12:15:41.792Z,12.4
2022-11-11T12:16:47.975Z,12.4
2022-11-11T12:17:54.088Z,12.5
2022-11-11T12:18:59.294Z,12.5
2022-11-11T12:20:05.442Z,12.6
2022-11-11T12:21:11.627Z,12.6
2022-11-11T12:22:17.800Z,12.7
2022-11-11T12:23:23.981Z,12.7
2022-11-11T12:24:30.221Z,12.8
2022-11-11T12:25:36.354Z,12.8
2022-11-11T12:26:42.531Z,12.8
2022-11-11T12:27:48.647Z,12.9
2022-11-11T12:28:54.886Z,13
2022-11-11T12:30:00.968Z,13.1
2022-11-11T12:31:07.151Z,13
2022-11-11T12:32:13.346Z,13.1
2022-11-11T12:33:18.562Z,13.2
2022-11-11T12:34:24.681Z,13.1
2022-11-11T12:35:30.829Z,13.1
2022-11-11T12:36:37.013Z,13.2
2022-11-11T12:37:43.174Z,13.2
2022-11-11T12:38:49.348Z,13.1
2022-11-11T12:41:01.678Z,13.2
2022-11-11T12:42:07.842Z,13.1
2022-11-11T12:43:14.077Z,13.2
2022-11-11T12:44:20.196Z,13.3
2022-11-11T12:45:26.349Z,13.4
2022-11-11T12:46:32.532Z,13.4
2022-11-11T12:47:37.772Z,13.5
2022-11-11T12:48:43.959Z,13.5
2022-11-11T12:49:50.061Z,13.5
2022-11-11T12:50:56.229Z,13.5
2022-11-11T12:52:02.406Z,13.5
2022-11-11T12:53:08.566Z,13.4
2022-11-11T12:54:14.753Z,13.4
2022-11-11T12:55:20.976Z,13.2
2022-11-11T12:56:27.081Z,13.1
2022-11-11T12:57:33.240Z,13.1
2022-11-11T12:58:39.421Z,13
2022-11-11T12:59:45.612Z,13
2022-11-11T13:00:51.747Z,12.9
2022-11-11T13:01:57.101Z,12.9
2022-11-11T13:03:03.118Z,12.8
2022-11-11T13:04:09.284Z,12.9
2022-11-11T13:05:15.461Z,12.9
2022-11-11T13:06:21.610Z,12.8
2022-11-11T13:07:27.766Z,12.7
2022-11-11T13:08:33.939Z,12.6
2022-11-11T13:09:40.115Z,12.5
2022-11-11T13:10:46.299Z,12.5
2022-11-11T13:11:52.455Z,12.4
2022-11-11T13:12:58.683Z,12.4
2022-11-11T13:14:04.899Z,12.3
2022-11-11T13:15:10.977Z,12.3
2022-11-11T13:16:16.185Z,12.4
2022-11-11T13:17:22.352Z,12.4
2022-11-11T13:18:28.522Z,12.3
2022-11-11T13:19:34.659Z,12.4
2022-11-11T13:20:40.831Z,12.4
2022-11-11T13:21:47.094Z,12.5
2022-11-11T13:22:53.245Z,12.5
2022-11-11T13:23:59.392Z,12.5
2022-11-11T13:25:05.517Z,12.5
2022-11-11T13:26:11.677Z,12.5
2022-11-11T13:27:17.847Z,12.6
2022-11-11T13:28:24.075Z,12.6
2022-11-11T13:29:30.183Z,12.7
2022-11-11T13:30:35.381Z,12.7
2022-11-11T13:31:41.549Z,12.8
2022-11-11T13:32:47.712Z,12.8
2022-11-11T13:33:53.882Z,12.8
2022-11-11T13:35:00.096Z,12.8
2022-11-11T13:36:06.303Z,12.8
2022-11-11T13:37:11.455Z,12.9
2022-11-11T13:38:17.652Z,12.9
2022-11-11T13:39:23.820Z,12.9
2022-11-11T13:40:29.932Z,12.9
2022-11-11T13:41:36.085Z,12.9
2022-11-11T13:42:42.273Z,12.9
2022-11-11T13:43:48.448Z,12.9
2022-11-11T13:44:54.604Z,12.9
2022-11-11T13:46:00.765Z,12.9
2022-11-11T13:47:06.952Z,12.9
2022-11-11T13:48:13.096Z,12.9
2022-11-11T13:49:19.275Z,12.9
2022-11-11T13:50:25.450Z,12.9
2022-11-11T13:51:30.646Z,13
2022-11-11T13:52:36.813Z,13
2022-11-11T13:53:42.984Z,13.1
2022-11-11T13:54:49.150Z,13.1
2022-11-11T13:55:55.323Z,13.1
2022-11-11T13:57:01.478Z,13.1
2022-11-11T13:58:07.657Z,13.1
2022-11-11T13:59:13.825Z,13.2
2022-11-11T14:00:19.983Z,13.2
2022-11-11T14:01:26.156Z,13.3
2022-11-11T14:02:32.410Z,13.3
2022-11-11T14:03:38.509Z,13.4
2022-11-11T14:04:44.655Z,13.3
2022-11-11T14:05:49.847Z,13.3
2022-11-11T14:06:56.020Z,13.2
2022-11-11T14:08:02.265Z,13.1
2022-11-11T14:09:08.369Z,13
2022-11-11T14:10:14.519Z,13
2022-11-11T14:11:20.704Z,13
2022-11-11T14:12:26.875Z,12.9
2022-11-11T14:13:33.037Z,12.9
2022-11-11T14:14:39.215Z,12.8
2022-11-11T14:15:45.392Z,12.8
2022-11-11T14:16:51.552Z,12.8
2022-11-11T14:17:57.707Z,12.8
2022-11-11T14:19:03.951Z,12.7
2022-11-11T14:20:09.089Z,12.7
2022-11-11T14:21:15.236Z,12.7
2022-11-11T14:22:21.416Z,12.7
2022-11-11T14:23:27.584Z,12.6
2022-11-11T14:24:33.815Z,12.6
2022-11-11T14:25:40.007Z,12.5
2022-11-11T14:26:46.091Z,12.5
2022-11-11T14:27:52.254Z,12.5
2022-11-11T14:28:58.420Z,12.5
2022-11-11T14:30:04.662Z,12.4
2022-11-11T14:31:10.777Z,12.4
2022-11-11T14:32:16.955Z,12.3
2022-11-11T14:33:23.113Z,12.3
2022-11-11T14:34:28.290Z,12.2
2022-11-11T14:35:34.486Z,12.2
2022-11-11T14:36:40.625Z,12.2
2022-11-11T14:37:46.806Z,12.1
2022-11-11T14:38:52.980Z,12.1
2022-11-11T14:39:59.135Z,12
2022-11-11T14:41:05.324Z,12
2022-11-11T14:42:11.472Z,11.9
2022-11-11T14:43:17.650Z,11.9
2022-11-11T14:44:23.827Z,11.9
2022-11-11T14:45:29.992Z,11.8
2022-11-11T14:46:36.160Z,11.7
2022-11-11T14:47:42.398Z,11.7
2022-11-11T14:48:47.524Z,11.6
2022-11-11T14:49:53.716Z,11.6
2022-11-11T14:50:59.852Z,11.5
2022-11-11T14:52:06.019Z,11.4
2022-11-11T14:53:12.181Z,11.3
2022-11-11T14:54:18.362Z,11.3
2022-11-11T14:55:24.539Z,11.2
2022-11-11T14:56:30.702Z,11.1
2022-11-11T14:57:36.874Z,11.1
2022-11-11T14:58:43.049Z,11
2022-11-11T14:59:49.219Z,11
2022-11-11T15:00:55.382Z,10.9
2022-11-11T15:02:01.554Z,10.8
2022-11-11T15:03:06.755Z,10.8
2022-11-11T15:04:13.029Z,10.7
2022-11-11T15:05:19.081Z,10.6
2022-11-11T15:06:25.247Z,10.5
2022-11-11T15:07:31.417Z,10.4